createdAt,value
2024-02-28T00:02:04.934Z,16.65
2024-02-28T00:04:31.575Z,17.20
2024-02-28T00:06:58.515Z,16.60
2024-02-28T00:09:25.293Z,16.27
2024-02-28T00:11:52.051Z,17.10
2024-02-28T00:14:18.693Z,15.50
2024-02-28T00:16:46.659Z,16.25
2024-02-28T00:19:14.325Z,18.00
2024-02-28T00:21:42.409Z,16.30
2024-02-28T00:24:10.061Z,15.93
2024-02-28T00:26:37.622Z,16.42
2024-02-28T00:29:04.484Z,15.07
2024-02-28T00:31:31.214Z,14.80
2024-02-28T00:33:58.023Z,14.82
2024-02-28T00:36:24.830Z,17.60
2024-02-28T00:38:51.591Z,14.32
2024-02-28T00:41:18.294Z,15.85
2024-02-28T00:43:45.110Z,15.32
2024-02-28T00:46:13.410Z,15.35
2024-02-28T00:48:40.887Z,16.77
2024-02-28T00:51:09.419Z,16.10
2024-02-28T00:53:36.206Z,18.33
2024-02-28T00:56:03.161Z,16.08
2024-02-28T00:58:31.303Z,18.83
2024-02-28T01:00:58.973Z,17.77
2024-02-28T01:03:26.099Z,15.27
2024-02-28T01:05:53.360Z,16.23
2024-02-28T01:08:20.242Z,14.18
2024-02-28T01:10:47.621Z,14.90
2024-02-28T01:13:14.653Z,15.13
2024-02-28T01:15:43.248Z,16.98
2024-02-28T01:18:11.334Z,16.35
2024-02-28T01:20:38.490Z,16.75
2024-02-28T01:23:05.623Z,17.05
2024-02-28T01:25:32.393Z,17.60
2024-02-28T01:27:59.595Z,15.35
2024-02-28T01:30:27.135Z,17.35
2024-02-28T01:32:54.093Z,18.90
2024-02-28T01:35:20.896Z,15.65
2024-02-28T01:37:47.566Z,16.25
2024-02-28T01:40:14.623Z,16.90
2024-02-28T01:42:41.455Z,16.02
2024-02-28T01:45:10.362Z,16.77
2024-02-28T01:47:38.294Z,17.85
2024-02-28T01:50:05.998Z,16.85
2024-02-28T01:52:33.066Z,16.17
2024-02-28T01:55:00.088Z,17.00
2024-02-28T01:57:28.435Z,15.85
2024-02-28T01:59:57.060Z,14.80
2024-02-28T02:02:23.690Z,16.50
2024-02-28T02:04:50.365Z,17.48
2024-02-28T02:07:17.016Z,15.05
2024-02-28T02:09:43.802Z,19.30
2024-02-28T02:12:10.603Z,17.25
2024-02-28T02:14:37.195Z,15.10
2024-02-28T02:17:03.796Z,15.68
2024-02-28T02:24:59.665Z,18.15
2024-02-28T02:27:27.243Z,15.35
2024-02-28T02:29:53.896Z,16.92
2024-02-28T02:32:20.529Z,18.30
2024-02-28T02:34:47.181Z,15.27
2024-02-28T02:37:13.771Z,16.48
2024-02-28T02:39:40.455Z,17.52
2024-02-28T02:42:07.221Z,16.00
2024-02-28T02:44:34.967Z,15.07
2024-02-28T02:47:01.658Z,15.75
2024-02-28T02:49:28.248Z,15.30
2024-02-28T02:51:54.864Z,14.60
2024-02-28T02:54:21.647Z,15.73
2024-02-28T02:56:48.278Z,16.50
2024-02-28T02:59:14.980Z,15.45
2024-02-28T03:01:41.672Z,14.57
2024-02-28T03:04:08.275Z,15.13
2024-02-28T03:06:35.192Z,13.48
2024-02-28T03:09:01.892Z,16.17
2024-02-28T03:11:28.636Z,15.30
2024-02-28T03:13:55.344Z,15.07
2024-02-28T03:16:22.186Z,13.00
2024-02-28T03:18:48.862Z,14.70
2024-02-28T03:21:15.867Z,15.13
2024-02-28T03:23:42.524Z,13.85
2024-02-28T03:26:09.231Z,14.45
2024-02-28T03:28:35.857Z,14.25
2024-02-28T03:31:02.933Z,12.60
2024-02-28T03:33:32.816Z,15.05
2024-02-28T03:35:59.482Z,12.57
2024-02-28T03:38:26.223Z,12.32
2024-02-28T03:40:52.921Z,14.82
2024-02-28T03:43:19.551Z,13.63
2024-02-28T03:45:46.352Z,16.92
2024-02-28T03:48:13.117Z,13.90
2024-02-28T03:50:39.789Z,13.35
2024-02-28T03:53:06.526Z,11.15
2024-02-28T03:55:33.217Z,13.35
2024-02-28T03:57:59.919Z,12.43
2024-02-28T04:00:27.316Z,11.30
2024-02-28T04:02:54.028Z,11.93
2024-02-28T04:05:20.710Z,13.25
2024-02-28T04:07:47.390Z,11.60
2024-02-28T04:10:14.055Z,12.07
2024-02-28T04:12:40.818Z,11.90
2024-02-28T04:15:07.760Z,11.23
2024-02-28T04:17:34.432Z,10.63
2024-02-28T04:20:05.587Z,12.27
2024-02-28T04:22:32.881Z,11.20
2024-02-28T04:24:59.595Z,10.80
2024-02-28T04:27:26.326Z,11.48
2024-02-28T04:29:53.058Z,9.75
2024-02-28T04:32:19.767Z,12.55
2024-02-28T04:34:46.386Z,8.40
2024-02-28T04:37:13.097Z,12.00
2024-02-28T04:39:39.746Z,10.55
2024-02-28T04:42:06.422Z,10.93
2024-02-28T04:44:33.056Z,10.82
2024-02-28T04:46:59.910Z,10.55
2024-02-28T04:49:27.114Z,11.02
2024-02-28T04:51:54.167Z,9.82
2024-02-28T04:54:21.303Z,11.00
2024-02-28T04:56:47.954Z,11.80
2024-02-28T04:59:14.884Z,10.43
2024-02-28T05:01:43.267Z,11.50
2024-02-28T05:04:10.827Z,10.43
2024-02-28T05:06:40.422Z,9.73
2024-02-28T05:09:08.018Z,9.82
2024-02-28T05:11:34.727Z,10.32
2024-02-28T05:14:01.411Z,10.48
2024-02-28T05:16:28.068Z,10.60
2024-02-28T05:18:54.813Z,10.88
2024-02-28T05:21:21.602Z,9.70
2024-02-28T05:23:48.324Z,10.05
2024-02-28T05:26:15.235Z,12.18
2024-02-28T05:28:42.009Z,12.02
2024-02-28T05:31:25.822Z,10.25
2024-02-28T05:33:58.746Z,10.52
2024-02-28T05:36:27.838Z,11.85
2024-02-28T05:38:55.851Z,11.32
2024-02-28T05:41:22.834Z,10.52
2024-02-28T05:43:49.994Z,11.45
2024-02-28T05:46:17.837Z,11.90
2024-02-28T05:48:45.393Z,11.02
2024-02-28T05:51:14.374Z,12.60
2024-02-28T05:53:44.474Z,11.65
2024-02-28T05:56:14.995Z,12.50
2024-02-28T05:58:42.940Z,11.65
2024-02-28T06:01:10.535Z,11.35
2024-02-28T06:03:38.306Z,12.52
2024-02-28T06:06:08.497Z,10.60
2024-02-28T06:08:36.312Z,9.65
2024-02-28T06:11:03.206Z,10.82
2024-02-28T06:13:32.868Z,12.07
2024-02-28T06:15:59.818Z,11.73
2024-02-28T06:18:28.498Z,12.82
2024-02-28T06:20:56.491Z,10.88
2024-02-28T06:23:28.567Z,10.68
2024-02-28T06:25:57.071Z,10.25
2024-02-28T06:28:23.970Z,9.90
2024-02-28T06:30:50.784Z,11.40
2024-02-28T06:33:17.683Z,11.45
2024-02-28T06:35:44.401Z,11.18
2024-02-28T06:38:11.038Z,10.40
2024-02-28T06:40:37.764Z,11.52
2024-02-28T06:43:05.158Z,13.15
2024-02-28T06:45:31.996Z,12.27
2024-02-28T06:47:59.432Z,11.55
2024-02-28T06:50:26.117Z,10.23
2024-02-28T06:52:55.068Z,9.68
2024-02-28T06:55:22.226Z,11.00
2024-02-28T06:57:49.295Z,11.45
2024-02-28T07:00:17.375Z,10.57
2024-02-28T07:02:44.646Z,10.50
2024-02-28T07:05:11.805Z,10.70
2024-02-28T07:07:38.672Z,10.98
2024-02-28T07:10:05.980Z,10.27
2024-02-28T07:12:33.225Z,11.43
2024-02-28T07:15:00.194Z,10.25
2024-02-28T07:17:27.046Z,12.55
2024-02-28T07:19:53.653Z,12.07
2024-02-28T07:22:20.623Z,10.93
2024-02-28T07:24:47.359Z,11.63
2024-02-28T07:27:14.085Z,11.13
2024-02-28T07:29:40.797Z,12.07
2024-02-28T07:32:07.796Z,9.65
2024-02-28T07:34:35.073Z,11.52
2024-02-28T07:37:02.009Z,10.55
2024-02-28T07:39:28.929Z,13.00
2024-02-28T07:41:56.603Z,11.27
2024-02-28T07:44:23.956Z,11.23
2024-02-28T07:46:52.338Z,11.10
2024-02-28T07:49:19.661Z,9.70
2024-02-28T07:51:46.773Z,13.23
2024-02-28T07:54:13.669Z,12.25
2024-02-28T07:56:40.622Z,13.02
2024-02-28T07:59:07.353Z,9.65
2024-02-28T08:01:35.060Z,11.30
2024-02-28T08:04:03.333Z,11.00
2024-02-28T08:06:30.343Z,10.50
2024-02-28T08:08:57.145Z,10.23
2024-02-28T08:11:24.572Z,10.10
2024-02-28T08:13:51.344Z,9.07
2024-02-28T08:16:18.232Z,10.93
2024-02-28T08:18:45.709Z,9.07
2024-02-28T08:21:12.596Z,10.02
2024-02-28T08:23:39.713Z,10.90
2024-02-28T08:26:06.421Z,9.40
2024-02-28T08:28:33.149Z,9.98
2024-02-28T15:19:13.633Z,10.15
2024-02-28T15:21:40.416Z,7.95
2024-02-28T15:24:07.402Z,10.50
2024-02-28T15:26:42.525Z,7.78
2024-02-28T15:29:13.304Z,9.70
2024-02-28T15:31:40.086Z,8.65
2024-02-28T15:34:06.910Z,9.43
2024-02-28T15:36:33.650Z,9.65
2024-02-28T15:39:00.271Z,10.15
2024-02-28T15:41:27.009Z,9.73
2024-02-28T15:43:53.585Z,15.85
2024-02-28T15:46:20.298Z,16.60
2024-02-28T15:48:47.043Z,12.07
2024-02-28T15:51:13.811Z,11.15
2024-02-28T15:53:40.508Z,9.40
2024-02-28T15:56:07.558Z,7.10
2024-02-28T15:58:35.328Z,27.63
2024-02-28T16:01:02.219Z,9.82
2024-02-28T16:03:29.122Z,9.15
2024-02-28T16:05:55.782Z,10.27
2024-02-28T16:08:24.735Z,12.23
2024-02-28T16:10:51.447Z,12.35
2024-02-28T16:13:18.185Z,13.35
2024-02-28T16:15:44.856Z,10.20
2024-02-28T16:18:11.564Z,9.43
2024-02-28T16:20:38.157Z,8.25
2024-02-28T16:23:05.501Z,8.68
2024-02-28T16:25:32.623Z,8.27
2024-02-28T16:27:59.315Z,8.93
2024-02-28T16:30:26.032Z,8.07
2024-02-28T16:32:53.135Z,7.75
2024-02-28T16:35:19.881Z,8.75
2024-02-28T16:37:46.551Z,6.70
2024-02-28T16:40:13.308Z,8.43
2024-02-28T16:42:40.165Z,10.18
2024-02-28T16:45:07.501Z,9.25
2024-02-28T16:47:34.122Z,10.93
2024-02-28T16:50:00.751Z,11.38
2024-02-28T16:52:27.940Z,10.75
2024-02-28T16:54:54.655Z,10.50
2024-02-28T16:57:21.332Z,9.73
2024-02-28T16:59:47.982Z,11.25
2024-02-28T17:02:14.563Z,10.65
2024-02-28T17:04:41.231Z,10.75
2024-02-28T17:07:08.037Z,10.20
2024-02-28T17:09:34.776Z,10.48
2024-02-28T17:12:01.444Z,10.98
2024-02-28T17:14:28.157Z,9.88
2024-02-28T17:16:54.790Z,9.88
2024-02-28T17:19:21.402Z,11.27
2024-02-28T17:21:48.129Z,8.15
2024-02-28T17:24:14.898Z,10.38
2024-02-28T17:26:41.936Z,10.70
2024-02-28T17:29:09.213Z,9.65
2024-02-28T17:31:35.964Z,9.73
2024-02-28T17:34:02.798Z,10.48
2024-02-28T17:36:29.687Z,10.18
2024-02-28T17:38:56.336Z,7.50
2024-02-28T17:41:23.067Z,8.73
2024-02-28T17:43:49.758Z,9.80
2024-02-28T17:46:16.473Z,10.10
2024-02-28T17:48:44.606Z,9.43
2024-02-28T17:51:11.585Z,9.48
2024-02-28T17:53:38.211Z,7.70
2024-02-28T17:56:07.047Z,9.68
2024-02-28T17:58:33.624Z,8.70
2024-02-28T18:01:03.251Z,10.07
2024-02-28T18:03:29.969Z,10.10
2024-02-28T18:05:56.833Z,9.35
2024-02-28T18:08:23.521Z,8.50
2024-02-28T18:10:50.248Z,10.02
2024-02-28T18:13:19.000Z,9.13
2024-02-28T18:15:45.729Z,9.15
2024-02-28T18:18:12.791Z,9.98
2024-02-28T18:20:39.440Z,9.63
2024-02-28T18:23:07.591Z,9.50
2024-02-28T18:25:35.589Z,9.10
2024-02-28T18:28:03.530Z,8.65
2024-02-28T18:30:30.635Z,9.45
2024-02-28T18:32:57.382Z,10.18
2024-02-28T18:35:24.105Z,8.60
2024-02-28T18:37:50.674Z,11.38
2024-02-28T18:40:17.488Z,10.13
2024-02-28T18:42:44.787Z,9.43
2024-02-28T18:45:12.471Z,9.43
2024-02-28T18:47:40.149Z,9.63
2024-02-28T18:50:08.182Z,9.05
2024-02-28T18:52:34.840Z,10.75
2024-02-28T18:55:01.684Z,10.23
2024-02-28T18:57:28.348Z,7.78
2024-02-28T18:59:55.834Z,11.55
2024-02-28T19:02:22.605Z,12.35
2024-02-28T19:04:49.236Z,8.68
2024-02-28T19:07:16.829Z,10.80
2024-02-28T19:09:43.587Z,10.82
2024-02-28T19:12:10.314Z,10.35
2024-02-28T19:14:37.779Z,10.48
2024-02-28T19:17:04.948Z,10.82
2024-02-28T19:19:34.734Z,9.00
2024-02-28T19:22:01.468Z,11.73
2024-02-28T19:24:28.132Z,11.00
2024-02-28T19:26:55.097Z,13.07
2024-02-28T19:29:21.790Z,11.10
2024-02-28T19:31:49.150Z,11.57
2024-02-28T19:34:15.883Z,11.27
2024-02-28T19:36:42.676Z,10.95
2024-02-28T19:39:09.384Z,10.82
2024-02-28T19:41:36.130Z,10.10
2024-02-28T19:44:05.940Z,10.23
2024-02-28T19:46:34.449Z,10.48
2024-02-28T19:49:01.984Z,11.82
2024-02-28T19:51:28.794Z,11.05
2024-02-28T19:53:55.528Z,12.48
2024-02-28T19:56:23.469Z,9.30
2024-02-28T19:58:52.266Z,12.52
2024-02-28T20:01:19.161Z,11.75
2024-02-28T20:03:45.926Z,11.13
2024-02-28T20:06:12.646Z,12.00
2024-02-28T20:08:40.949Z,10.20
2024-02-28T20:11:08.971Z,10.18
2024-02-28T20:13:35.764Z,11.35
2024-02-28T20:16:02.573Z,11.43
2024-02-28T20:18:29.409Z,12.50
2024-02-28T20:20:56.145Z,11.02
2024-02-28T20:23:23.013Z,10.43
2024-02-28T20:25:50.191Z,11.20
2024-02-28T20:28:22.396Z,11.20
2024-02-28T20:30:50.000Z,9.10
2024-02-28T20:33:16.802Z,11.95
2024-02-28T20:35:43.509Z,11.40
2024-02-28T20:38:10.332Z,10.48
2024-02-28T20:40:37.186Z,11.18
2024-02-28T20:43:04.305Z,12.15
2024-02-28T20:45:31.214Z,10.73
2024-02-28T20:47:57.889Z,10.05
2024-02-28T20:50:26.192Z,12.05
2024-02-28T20:52:53.264Z,8.45
2024-02-28T20:55:21.564Z,9.18
2024-02-28T20:57:48.338Z,11.50
2024-02-28T21:00:16.767Z,10.20
2024-02-28T21:02:43.546Z,11.13
2024-02-28T21:05:10.683Z,11.05
2024-02-28T21:07:45.522Z,10.45
2024-02-28T21:10:19.226Z,11.27
2024-02-28T21:12:45.932Z,9.43
2024-02-28T21:15:12.682Z,8.77
2024-02-28T21:17:39.871Z,9.50
2024-02-28T21:20:07.072Z,10.32
2024-02-28T21:22:36.602Z,10.80
2024-02-28T21:25:04.101Z,9.50
2024-02-28T21:27:31.074Z,7.20
2024-02-28T21:30:00.056Z,8.70
2024-02-28T21:32:26.937Z,7.85
2024-02-28T21:34:53.702Z,10.88
2024-02-28T21:37:20.312Z,9.27
2024-02-28T21:39:47.278Z,9.95
2024-02-28T21:42:13.977Z,9.63
2024-02-28T21:44:40.843Z,8.45
2024-02-28T21:47:09.001Z,9.07
2024-02-28T21:49:35.767Z,9.05
2024-02-28T21:52:02.530Z,7.45
2024-02-28T21:54:29.201Z,8.50
2024-02-28T21:56:56.919Z,8.68
2024-02-28T21:59:23.550Z,9.32
2024-02-28T22:01:50.242Z,9.32
2024-02-28T22:04:16.947Z,10.77
2024-02-28T22:06:43.639Z,8.77
2024-02-28T22:09:10.318Z,8.82
2024-02-28T22:11:37.029Z,8.38
2024-02-28T22:14:03.944Z,8.20
2024-02-28T22:16:30.546Z,8.88
2024-02-28T22:18:57.291Z,9.00
2024-02-28T22:21:23.967Z,10.65
2024-02-28T22:23:50.613Z,9.70
2024-02-28T22:26:20.259Z,9.55
2024-02-28T22:28:47.099Z,9.73
2024-02-28T22:31:14.344Z,8.93
2024-02-28T22:33:41.244Z,9.20
2024-02-28T22:36:12.109Z,8.98
2024-02-28T22:38:39.588Z,7.72
2024-02-28T22:41:06.739Z,7.93
2024-02-28T22:43:34.835Z,9.25
2024-02-28T22:46:02.671Z,9.15
2024-02-28T22:48:29.487Z,8.63
2024-02-28T22:50:56.421Z,8.82
2024-02-28T22:53:23.178Z,9.65
2024-02-28T22:55:50.038Z,8.45
2024-02-28T22:58:16.749Z,9.55
2024-02-28T23:00:44.208Z,8.05
2024-02-28T23:03:11.038Z,7.43
2024-02-28T23:05:37.633Z,9.27
2024-02-28T23:08:04.842Z,8.52
2024-02-28T23:10:32.493Z,8.80
2024-02-28T23:13:00.928Z,9.90
2024-02-28T23:15:27.891Z,9.43
2024-02-28T23:17:55.907Z,9.00
2024-02-28T23:20:26.805Z,9.88
2024-02-28T23:22:55.018Z,10.30
2024-02-28T23:25:22.535Z,9.68
2024-02-28T23:27:50.972Z,9.50
2024-02-28T23:30:17.950Z,9.45
2024-02-28T23:32:44.753Z,9.10
2024-02-28T23:35:11.601Z,10.73
2024-02-28T23:37:39.736Z,8.82
2024-02-28T23:40:10.509Z,10.40
2024-02-28T23:42:37.401Z,9.40
2024-02-28T23:45:04.877Z,9.00
2024-02-28T23:47:32.079Z,9.07
2024-02-28T23:49:58.842Z,9.15
2024-02-28T23:52:25.585Z,9.10
2024-02-28T23:54:52.358Z,8.65
2024-02-28T23:57:19.013Z,8.18
2024-02-28T23:59:45.611Z,9.98
